Time;durP1;ratioP1;P1;durP2;ratioP2;P2;SDS_P1;SDS_P2;PMS_P1;PMS_P2;Temp;Humidity;BMP_temperature;BMP_pressure;BME280_temperature;BME280_humidity;BME280_pressure;Samples;Min_cycle;Max_cycle;Signal;HPM_P1;HPM_P2
2022/05/30 00:01:19;;;;;;;7.78;1.83;;;;;;;8.50;100.00;101419.88;5100229;28;20436;-72
2022/05/30 00:03:45;;;;;;;10.38;1.80;;;;;;;8.46;100.00;101423.22;5093974;28;20023;-72
2022/05/30 00:06:13;;;;;;;10.05;1.92;;;;;;;8.40;100.00;101418.63;5104769;28;20076;-72
2022/05/30 00:08:39;;;;;;;7.43;1.52;;;;;;;8.36;100.00;101419.38;5094157;28;20031;-72
2022/05/30 00:11:07;;;;;;;7.25;2.08;;;;;;;8.36;100.00;101422.88;5096973;28;20522;-71
2022/05/30 00:13:33;;;;;;;6.97;1.80;;;;;;;8.38;100.00;101413.34;5083280;28;20035;-72
2022/05/30 00:16:07;;;;;;;6.25;2.03;;;;;;;8.38;100.00;101408.09;5092453;28;20353;-70
2022/05/30 00:18:32;;;;;;;8.32;1.80;;;;;;;8.42;100.00;101407.38;5098241;28;20027;-72
2022/05/30 00:20:58;;;;;;;7.78;1.98;;;;;;;8.40;100.00;101403.78;5092687;28;20038;-72
2022/05/30 00:23:24;;;;;;;8.30;1.90;;;;;;;8.38;100.00;101400.22;5093164;28;20027;-72
2022/05/30 00:25:49;;;;;;;10.05;3.13;;;;;;;8.33;100.00;101401.78;5097073;28;20023;-71
2022/05/30 00:28:16;;;;;;;14.05;1.73;;;;;;;8.26;100.00;101399.78;5095930;28;20529;-71
2022/05/30 00:30:43;;;;;;;9.98;1.63;;;;;;;8.34;100.00;101395.72;5109905;28;20051;-71
2022/05/30 00:33:09;;;;;;;9.07;2.55;;;;;;;8.22;100.00;101395.25;5105591;28;20028;-71
2022/05/30 00:35:34;;;;;;;8.90;2.10;;;;;;;8.20;100.00;101394.34;5095233;28;20020;-72
2022/05/30 00:38:00;;;;;;;3.90;1.88;;;;;;;8.17;100.00;101391.63;5093645;28;20372;-72
2022/05/30 00:40:25;;;;;;;4.38;2.00;;;;;;;8.16;100.00;101395.06;5101040;28;20364;-71
2022/05/30 00:42:51;;;;;;;6.47;1.90;;;;;;;8.13;100.00;101397.59;5103171;28;20039;-72
2022/05/30 00:45:16;;;;;;;10.98;2.13;;;;;;;8.17;100.00;101394.25;5105744;28;20023;-72
2022/05/30 00:47:41;;;;;;;5.85;1.95;;;;;;;8.19;100.00;101389.91;5093047;27;20024;-71
2022/05/30 00:50:08;;;;;;;4.10;1.80;;;;;;;8.20;100.00;101389.09;5091892;28;20395;-72
2022/05/30 00:52:38;;;;;;;11.80;2.13;;;;;;;8.17;100.00;101391.63;5096099;28;20043;-72
2022/05/30 00:55:17;;;;;;;9.60;2.00;;;;;;;8.14;100.00;101384.53;5091975;28;20497;-72
2022/05/30 00:57:45;;;;;;;6.75;1.75;;;;;;;8.17;100.00;101389.00;5100603;28;20460;-72
2022/05/30 01:00:20;;;;;;;8.70;1.90;;;;;;;8.43;100.00;101398.63;5105686;28;20069;-72
2022/05/30 01:06:30;;;;;;;6.85;1.80;;;;;;;8.41;100.00;101400.31;5084060;28;20032;-71
2022/05/30 01:08:15;;;;;;;4.82;1.92;;;;;;;8.50;100.00;101386.66;5092889;28;20038;-71
2022/05/30 01:10:41;;;;;;;10.80;2.05;;;;;;;8.55;100.00;101392.06;5104078;28;20111;-72
2022/05/30 01:13:11;;;;;;;9.82;2.30;;;;;;;8.58;100.00;101389.53;5096723;28;20117;-72
2022/05/30 01:15:36;;;;;;;7.53;2.15;;;;;;;8.73;100.00;101387.41;5092671;28;20464;-72
2022/05/30 01:18:17;;;;;;;12.45;2.35;;;;;;;8.69;100.00;101385.53;5099707;28;20094;-72
2022/05/30 01:20:42;;;;;;;8.63;1.92;;;;;;;8.77;100.00;101389.28;5107208;28;20034;-71
2022/05/30 01:23:33;;;;;;;7.15;1.58;;;;;;;8.69;100.00;101390.78;5103194;28;20028;-72
2022/05/30 01:26:34;;;;;;;6.22;1.85;;;;;;;8.67;100.00;101387.22;5093587;28;20048;-72
2022/05/30 01:29:09;;;;;;;3.78;1.83;;;;;;;8.69;100.00;101388.16;5090051;28;20047;-72
2022/05/30 01:31:34;;;;;;;13.45;2.28;;;;;;;8.64;100.00;101384.50;5094040;28;20115;-72
2022/05/30 01:33:59;;;;;;;3.42;1.85;;;;;;;8.68;100.00;101383.78;5105542;28;20541;-71
2022/05/30 01:36:27;;;;;;;5.78;1.83;;;;;;;8.65;100.00;101380.16;5094969;28;20030;-73
2022/05/30 01:38:53;;;;;;;11.73;2.45;;;;;;;8.71;100.00;101376.00;5101846;28;20092;-72
2022/05/30 01:41:18;;;;;;;1.90;1.35;;;;;;;8.78;100.00;101377.97;5097447;28;20380;-70
2022/05/30 01:43:45;;;;;;;7.88;2.42;;;;;;;8.90;100.00;101371.34;5107034;28;20479;-71
2022/05/30 01:46:14;;;;;;;13.73;2.40;;;;;;;9.02;100.00;101369.13;5095852;28;20032;-72
2022/05/30 01:48:39;;;;;;;7.63;1.65;;;;;;;9.03;100.00;101368.25;5095512;28;20398;-72
2022/05/30 01:51:05;;;;;;;7.20;2.38;;;;;;;9.03;100.00;101368.25;5098532;28;20111;-74
2022/05/30 01:53:30;;;;;;;6.72;1.83;;;;;;;8.97;100.00;101365.44;5091915;28;20484;-71
2022/05/30 01:55:56;;;;;;;9.68;2.10;;;;;;;8.94;100.00;101370.59;5098204;28;20035;-72
2022/05/30 01:58:21;;;;;;;7.93;2.28;;;;;;;8.95;100.00;101367.13;5097952;28;20058;-72
2022/05/30 02:00:48;;;;;;;9.15;1.90;;;;;;;8.87;100.00;101361.66;5093951;28;20030;-71
2022/05/30 02:03:13;;;;;;;7.63;1.77;;;;;;;8.89;100.00;101361.69;5101160;28;20498;-71
2022/05/30 02:05:40;;;;;;;8.07;2.60;;;;;;;8.87;100.00;101358.09;5095014;28;20019;-71
2022/05/30 02:08:07;;;;;;;5.93;2.17;;;;;;;8.96;100.00;101366.28;5096624;28;20034;-72
2022/05/30 02:10:34;;;;;;;7.53;2.17;;;;;;;8.99;100.00;101366.38;5091540;28;20020;-72
2022/05/30 02:12:59;;;;;;;6.32;1.90;;;;;;;9.00;100.00;101365.53;5093005;28;20027;-71
2022/05/30 02:15:24;;;;;;;6.97;2.13;;;;;;;9.21;100.00;101361.78;5081634;28;20031;-71
2022/05/30 02:17:50;;;;;;;9.90;2.35;;;;;;;9.19;100.00;101356.50;5105556;28;20027;-72
2022/05/30 02:20:16;;;;;;;8.73;2.00;;;;;;;9.14;100.00;101359.81;5097010;28;20120;-72
2022/05/30 02:22:42;;;;;;;5.05;1.88;;;;;;;9.07;100.00;101361.38;5093700;28;20492;-72
2022/05/30 02:25:08;;;;;;;10.55;2.30;;;;;;;9.04;100.00;101356.91;5095610;28;20503;-73
2022/05/30 02:27:33;;;;;;;9.15;2.13;;;;;;;9.14;100.00;101363.31;5095155;28;20114;-72
2022/05/30 02:29:58;;;;;;;11.93;2.75;;;;;;;9.17;100.00;101360.81;5109836;28;20141;-72
2022/05/30 02:32:24;;;;;;;7.03;2.13;;;;;;;9.15;100.00;101364.25;5102659;28;20039;-72
2022/05/30 02:37:33;;;;;;;5.57;2.38;;;;;;;9.03;100.00;101355.13;5109428;28;20081;-72
2022/05/30 02:39:59;;;;;;;10.65;2.03;;;;;;;8.95;100.00;101348.75;5098124;28;20020;-72
2022/05/30 02:42:24;;;;;;;9.20;2.55;;;;;;;8.98;100.00;101351.47;5100737;28;20437;-73
2022/05/30 02:44:50;;;;;;;8.43;1.70;;;;;;;8.99;100.00;101353.25;5107892;28;20047;-72
2022/05/30 02:47:18;;;;;;;9.55;2.10;;;;;;;9.02;100.00;101348.13;5098164;28;20034;-72
2022/05/30 02:49:44;;;;;;;9.20;1.70;;;;;;;8.97;100.00;101349.69;5112571;28;20055;-72
2022/05/30 02:52:09;;;;;;;11.20;1.95;;;;;;;8.87;100.00;101347.63;5096922;28;20495;-72
2022/05/30 02:54:35;;;;;;;5.78;1.63;;;;;;;8.74;100.00;101351.59;5109174;28;20035;-73
2022/05/30 02:57:01;;;;;;;6.45;1.70;;;;;;;8.66;100.00;101347.84;5097437;28;20379;-71
2022/05/30 02:59:27;;;;;;;5.75;1.63;;;;;;;8.54;100.00;101350.94;5104661;28;20024;-72
2022/05/30 03:01:53;;;;;;;9.45;2.50;;;;;;;8.46;100.00;101349.78;5098005;28;20027;-73
2022/05/30 03:04:19;;;;;;;9.50;1.75;;;;;;;8.39;100.00;101349.53;5096556;28;20059;-72
2022/05/30 03:06:45;;;;;;;7.97;1.75;;;;;;;8.33;100.00;101346.72;5095159;28;20078;-72
2022/05/30 03:09:11;;;;;;;7.85;1.90;;;;;;;8.31;100.00;101351.00;5094728;28;20031;-71
2022/05/30 03:11:36;;;;;;;8.70;1.77;;;;;;;8.20;100.00;101349.78;5097579;28;20039;-71
2022/05/30 03:14:02;;;;;;;6.50;1.70;;;;;;;8.20;100.00;101348.03;5106805;27;20032;-72
2022/05/30 03:16:28;;;;;;;5.18;1.40;;;;;;;8.21;100.00;101349.81;5093376;27;20024;-72
2022/05/30 03:18:53;;;;;;;10.65;2.53;;;;;;;8.22;100.00;101343.75;5101592;28;20088;-73
2022/05/30 03:21:18;;;;;;;6.47;1.80;;;;;;;8.14;100.00;101347.84;5100787;28;20103;-71
2022/05/30 03:23:44;;;;;;;6.80;1.77;;;;;;;8.14;100.00;101346.91;5098072;28;20055;-71
2022/05/30 03:26:10;;;;;;;6.60;2.25;;;;;;;8.14;100.00;101341.69;5097821;28;20133;-72
2022/05/30 03:28:36;;;;;;;8.25;1.77;;;;;;;8.12;100.00;101344.25;5095501;28;20115;-72
2022/05/30 03:31:02;;;;;;;10.07;1.98;;;;;;;8.11;100.00;101339.84;5101748;28;20032;-71
2022/05/30 03:33:28;;;;;;;7.55;2.22;;;;;;;8.06;100.00;101344.06;5093168;28;20032;-72
2022/05/30 03:35:54;;;;;;;8.82;1.80;;;;;;;8.04;100.00;101340.47;5103189;28;20337;-72
2022/05/30 03:38:19;;;;;;;6.32;1.83;;;;;;;7.98;100.00;101345.53;5105821;28;20057;-72
2022/05/30 03:40:44;;;;;;;6.00;1.75;;;;;;;7.93;100.00;101347.97;5106948;28;20523;-72
2022/05/30 03:43:11;;;;;;;8.02;2.47;;;;;;;7.92;100.00;101348.78;5097419;28;20123;-72
2022/05/30 03:45:41;;;;;;;16.00;2.08;;;;;;;7.93;100.00;101350.56;5103464;28;20035;-72
2022/05/30 03:48:09;;;;;;;9.13;1.90;;;;;;;7.95;100.00;101351.53;5101623;28;20097;-72
2022/05/30 03:50:36;;;;;;;6.65;1.85;;;;;;;7.90;100.00;101347.88;5112889;28;20096;-72
2022/05/30 03:53:06;;;;;;;10.40;2.58;;;;;;;7.86;100.00;101345.97;5091515;28;20071;-72
2022/05/30 03:55:34;;;;;;;7.93;1.88;;;;;;;7.82;100.00;101347.56;5089757;28;20032;-72
2022/05/30 03:58:01;;;;;;;10.50;2.72;;;;;;;7.77;100.00;101346.50;5114504;28;20028;-72
2022/05/30 04:00:27;;;;;;;10.00;1.85;;;;;;;7.74;100.00;101349.03;5094103;28;20113;-71
2022/05/30 04:02:52;;;;;;;7.95;2.70;;;;;;;7.69;100.00;101348.88;5106802;28;20489;-72
2022/05/30 04:05:19;;;;;;;8.00;2.40;;;;;;;7.67;100.00;101345.28;5109958;28;20059;-72
2022/05/30 04:07:45;;;;;;;9.52;2.17;;;;;;;7.70;100.00;101347.13;5083703;28;20020;-71
2022/05/30 04:10:10;;;;;;;9.52;2.58;;;;;;;7.83;100.00;101340.63;5101312;28;20077;-72
2022/05/30 04:12:36;;;;;;;10.48;2.30;;;;;;;7.90;100.00;101343.50;5099236;28;20028;-72
2022/05/30 04:15:03;;;;;;;5.60;1.95;;;;;;;7.93;100.00;101341.00;5094576;28;20023;-72
2022/05/30 04:17:31;;;;;;;5.95;2.05;;;;;;;8.05;100.00;101334.41;5112102;28;20027;-72
2022/05/30 04:19:56;;;;;;;7.25;1.83;;;;;;;8.03;100.00;101334.34;5108432;28;20447;-71
2022/05/30 04:22:22;;;;;;;9.23;1.95;;;;;;;8.09;100.00;101339.78;5102434;28;20039;-72
2022/05/30 04:24:47;;;;;;;6.95;2.20;;;;;;;8.12;100.00;101332.88;5111725;28;20028;-72
2022/05/30 04:27:13;;;;;;;7.15;2.33;;;;;;;8.13;100.00;101329.44;5106634;28;20031;-72
2022/05/30 04:29:39;;;;;;;5.95;2.33;;;;;;;8.17;100.00;101331.31;5091974;28;20038;-71
2022/05/30 04:32:05;;;;;;;14.05;2.63;;;;;;;8.21;100.00;101328.84;5095766;28;20160;-72
2022/05/30 04:34:32;;;;;;;9.75;2.47;;;;;;;8.31;100.00;101332.66;5110216;28;20044;-72
2022/05/30 04:36:57;;;;;;;9.50;2.95;;;;;;;8.40;100.00;101334.72;5105580;28;20032;-71
2022/05/30 04:39:23;;;;;;;8.10;2.97;;;;;;;8.42;100.00;101336.56;5103692;28;20035;-72
2022/05/30 04:41:48;;;;;;;8.98;3.05;;;;;;;8.44;100.00;101337.47;5096849;28;20032;-71
2022/05/30 04:44:14;;;;;;;8.77;2.53;;;;;;;8.53;100.00;101338.66;5106324;28;20039;-71
2022/05/30 04:46:39;;;;;;;7.07;2.35;;;;;;;8.60;100.00;101343.28;5097754;28;20020;-71
2022/05/30 04:49:05;;;;;;;7.68;2.10;;;;;;;8.66;100.00;101340.84;5095083;28;20052;-72
2022/05/30 04:51:30;;;;;;;6.50;1.95;;;;;;;8.75;100.00;101342.88;5102845;28;20062;-71
2022/05/30 04:53:56;;;;;;;7.72;2.47;;;;;;;8.81;100.00;101342.19;5090976;28;20032;-72
2022/05/30 04:56:21;;;;;;;11.25;2.33;;;;;;;8.83;100.00;101332.63;5096233;28;20023;-72
2022/05/30 04:58:47;;;;;;;6.15;2.20;;;;;;;8.90;100.00;101337.22;5102844;28;20020;-72
2022/05/30 05:01:13;;;;;;;13.23;2.33;;;;;;;8.97;100.00;101339.19;5104087;28;20027;-72
2022/05/30 05:03:40;;;;;;;12.15;2.30;;;;;;;9.06;100.00;101338.56;5107916;28;20063;-72
2022/05/30 05:06:14;;;;;;;7.22;2.13;;;;;;;9.10;100.00;101335.19;5094920;28;20069;-73
2022/05/30 05:08:53;;;;;;;10.63;1.85;;;;;;;9.06;100.00;101338.56;5093268;28;20028;-72
2022/05/30 05:11:25;;;;;;;6.78;1.77;;;;;;;9.11;100.00;101332.66;5096121;28;20433;-72
2022/05/30 05:13:52;;;;;;;5.75;1.73;;;;;;;9.18;100.00;101343.31;5079130;28;20107;-71
2022/05/30 05:16:20;;;;;;;7.40;1.70;;;;;;;9.24;100.00;101348.78;5090213;28;20047;-72
2022/05/30 05:18:46;;;;;;;5.00;1.48;;;;;;;9.28;100.00;101345.38;5093294;28;20032;-73
2022/05/30 05:21:23;;;;;;;6.70;1.85;;;;;;;9.33;100.00;101341.13;5101152;28;20043;-72
2022/05/30 05:23:49;;;;;;;8.88;2.42;;;;;;;9.41;100.00;101350.16;5089940;28;20480;-72
2022/05/30 05:26:16;;;;;;;6.00;1.67;;;;;;;9.49;100.00;101349.50;5090595;28;20020;-66
2022/05/30 05:28:42;;;;;;;8.85;2.20;;;;;;;9.54;100.00;101350.53;5093224;28;20081;-70
2022/05/30 05:31:08;;;;;;;6.38;1.80;;;;;;;9.56;100.00;101347.09;5092339;28;20484;-70
2022/05/30 05:33:34;;;;;;;11.25;1.83;;;;;;;9.65;100.00;101349.06;5093752;28;20059;-70
2022/05/30 05:35:59;;;;;;;7.72;2.00;;;;;;;9.70;100.00;101349.19;5095154;28;20392;-71
2022/05/30 05:38:24;;;;;;;4.68;1.30;;;;;;;9.74;100.00;101357.22;5090724;28;20108;-70
2022/05/30 05:40:50;;;;;;;8.88;1.38;;;;;;;9.81;100.00;101355.66;5097523;28;20430;-70
2022/05/30 05:43:16;;;;;;;7.53;1.73;;;;;;;9.84;100.00;101346.97;5085983;28;20053;-69
2022/05/30 05:45:43;;;;;;;8.35;1.67;;;;;;;9.88;100.00;101348.84;5085380;28;20060;-69
2022/05/30 05:48:09;;;;;;;5.88;1.55;;;;;;;9.94;100.00;101343.72;5090078;28;20078;-70
2022/05/30 05:50:39;;;;;;;8.23;1.52;;;;;;;10.00;100.00;101351.81;5088948;28;20107;-71
2022/05/30 05:53:05;;;;;;;6.35;1.40;;;;;;;10.05;100.00;101347.56;5091776;28;20024;-71
2022/05/30 05:55:30;;;;;;;5.28;1.42;;;;;;;10.06;100.00;101344.06;5092988;28;20357;-71
2022/05/30 05:57:56;;;;;;;8.85;1.90;;;;;;;10.13;100.00;101356.53;5090133;28;20114;-71
2022/05/30 06:00:21;;;;;;;5.57;1.00;;;;;;;10.16;100.00;101349.56;5092259;28;20032;-68
2022/05/30 06:02:46;;;;;;;2.72;1.20;;;;;;;10.17;100.00;101351.34;5092915;28;20032;-70
2022/05/30 06:05:12;;;;;;;7.50;1.02;;;;;;;10.25;100.00;101366.47;5091537;28;20023;-71
2022/05/30 06:07:39;;;;;;;6.20;1.20;;;;;;;10.32;100.00;101364.91;5087754;28;20024;-71
2022/05/30 06:10:08;;;;;;;8.68;1.52;;;;;;;10.37;100.00;101363.31;5091196;28;20024;-71
2022/05/30 06:12:34;;;;;;;6.63;1.45;;;;;;;10.40;100.00;101365.13;5087811;28;20032;-71
2022/05/30 06:14:59;;;;;;;5.18;1.00;;;;;;;10.43;100.00;101355.59;5089868;28;20044;-70
2022/05/30 06:17:25;;;;;;;9.13;1.58;;;;;;;10.48;100.00;101357.44;5091797;28;20039;-70
2022/05/30 06:19:50;;;;;;;4.50;1.10;;;;;;;10.46;100.00;101360.03;5082845;28;20032;-69
2022/05/30 06:22:15;;;;;;;5.45;1.10;;;;;;;10.49;100.00;101359.25;5092440;28;20035;-73
2022/05/30 06:24:41;;;;;;;5.45;1.10;;;;;;;10.59;100.00;101361.22;5087417;28;20039;-72
2022/05/30 06:27:07;;;;;;;5.82;1.17;;;;;;;10.65;100.00;101356.13;5085737;28;20012;-74
2022/05/30 06:29:33;;;;;;;3.20;1.00;;;;;;;10.69;100.00;101357.06;5084986;28;20036;-73
2022/05/30 06:31:58;;;;;;;8.68;1.02;;;;;;;10.72;100.00;101358.03;5088517;28;20480;-73
2022/05/30 06:34:24;;;;;;;6.50;1.10;;;;;;;10.84;100.00;101356.56;5079284;28;20031;-73
2022/05/30 06:36:50;;;;;;;6.20;1.17;;;;;;;10.90;100.00;101354.06;5092119;28;20468;-72
2022/05/30 06:39:17;;;;;;;6.70;0.93;;;;;;;10.96;100.00;101349.84;5086287;28;20099;-71
2022/05/30 06:41:44;;;;;;;5.95;0.98;;;;;;;11.05;100.00;101356.19;5088016;28;20479;-71
2022/05/30 06:44:10;;;;;;;2.05;0.73;;;;;;;11.16;100.00;101359.06;5092489;28;20175;-70
2022/05/30 06:46:37;;;;;;;4.00;0.80;;;;;;;11.21;96.91;101352.16;5099680;28;20111;-72
2022/05/30 06:49:04;;;;;;;5.75;0.90;;;;;;;11.33;96.46;101355.03;5091716;28;20097;-71
2022/05/30 06:51:31;;;;;;;5.38;1.00;;;;;;;11.46;95.69;101358.81;5090792;28;20454;-71
2022/05/30 06:53:56;;;;;;;4.45;0.73;;;;;;;11.53;95.81;101360.75;5096462;28;20115;-72
2022/05/30 06:56:24;;;;;;;7.03;1.13;;;;;;;11.60;100.00;101361.75;5089728;28;20115;-72
2022/05/30 06:58:51;;;;;;;6.72;0.93;;;;;;;11.66;97.37;101361.00;5100078;28;20020;-72
2022/05/30 07:01:18;;;;;;;3.97;0.85;;;;;;;11.68;94.82;101365.44;5103865;28;20106;-73
2022/05/30 07:03:46;;;;;;;5.38;1.00;;;;;;;11.66;93.36;101366.28;5100034;28;20059;-72
2022/05/30 07:06:16;;;;;;;1.60;0.82;;;;;;;11.67;93.99;101370.69;5088788;28;20348;-72
2022/05/30 07:08:45;;;;;;;3.10;0.80;;;;;;;11.68;98.60;101365.44;5092152;28;20064;-72
2022/05/30 07:11:11;;;;;;;3.53;0.90;;;;;;;11.74;100.00;101377.84;5096036;28;20047;-72
2022/05/30 07:13:37;;;;;;;4.60;0.60;;;;;;;11.74;100.00;101378.72;5112911;28;20039;-71
2022/05/30 07:16:02;;;;;;;2.72;0.50;;;;;;;11.77;100.00;101376.19;5101333;28;20035;-72
2022/05/30 07:18:28;;;;;;;3.70;0.70;;;;;;;11.76;100.00;101379.66;5091528;28;20031;-72
2022/05/30 07:20:59;;;;;;;3.53;0.73;;;;;;;11.67;100.00;101381.25;5089973;28;20157;-72
2022/05/30 07:23:25;;;;;;;1.92;0.77;;;;;;;11.69;100.00;101383.00;5099561;28;20031;-71
2022/05/30 07:25:50;;;;;;;2.80;0.80;;;;;;;11.72;100.00;101379.56;5102126;28;20015;-72
2022/05/30 07:28:16;;;;;;;5.22;1.15;;;;;;;11.65;100.00;101386.44;5116494;28;20023;-72
2022/05/30 07:30:41;;;;;;;3.65;0.88;;;;;;;11.69;100.00;101383.00;5102137;28;20020;-72
2022/05/30 07:33:08;;;;;;;7.00;0.85;;;;;;;11.77;100.00;101386.72;5101757;28;20031;-72
2022/05/30 07:35:33;;;;;;;6.40;1.20;;;;;;;11.71;100.00;101378.69;5095979;28;20026;-73
2022/05/30 07:37:58;;;;;;;2.00;0.80;;;;;;;11.81;100.00;101382.38;5095868;28;20020;-72
2022/05/30 07:40:23;;;;;;;3.53;1.13;;;;;;;11.84;100.00;101374.53;5095584;28;20127;-71
2022/05/30 07:42:49;;;;;;;5.45;1.38;;;;;;;12.04;100.00;101377.59;5095766;28;20024;-72
2022/05/30 07:45:14;;;;;;;1.45;0.70;;;;;;;12.09;100.00;101378.56;5094567;28;20016;-72
2022/05/30 07:47:40;;;;;;;1.73;0.70;;;;;;;12.14;100.00;101381.31;5109292;28;20023;-72
2022/05/30 07:50:06;;;;;;;4.53;1.02;;;;;;;12.06;100.00;101377.63;5113673;28;20026;-72
2022/05/30 07:52:32;;;;;;;3.25;0.85;;;;;;;12.27;100.00;101385.94;5109389;28;20080;-72
2022/05/30 07:54:58;;;;;;;3.05;0.98;;;;;;;12.36;100.00;101379.94;5095666;28;20043;-72
2022/05/30 07:57:50;;;;;;;3.45;1.63;;;;;;;12.64;100.00;101380.41;5095085;28;20059;-72
2022/05/30 08:00:11;;;;;;;1.70;0.43;;;;;;;12.48;94.76;101376.66;5098780;28;20035;-72
2022/05/30 08:02:41;;;;;;;2.70;0.80;;;;;;;12.63;98.83;101389.22;5096799;28;20034;-72
2022/05/30 08:05:08;;;;;;;1.83;0.68;;;;;;;12.43;97.16;101384.47;5102375;28;20106;-72
2022/05/30 08:07:33;;;;;;;4.97;1.35;;;;;;;12.17;96.99;101385.75;5097035;28;20028;-73
2022/05/30 08:09:59;;;;;;;1.98;0.70;;;;;;;11.89;99.12;101379.91;5089386;28;20020;-72
2022/05/30 08:12:25;;;;;;;4.63;1.05;;;;;;;11.76;100.00;101390.22;5093950;28;20020;-72
2022/05/30 08:14:51;;;;;;;2.00;0.70;;;;;;;11.68;100.00;101394.44;5094947;28;20024;-72
2022/05/30 08:17:16;;;;;;;1.73;0.50;;;;;;;11.68;100.00;101397.09;5095151;28;20128;-72
2022/05/30 08:19:41;;;;;;;1.50;0.65;;;;;;;11.61;100.00;101396.06;5094995;28;20073;-71
2022/05/30 08:22:09;;;;;;;2.05;0.73;;;;;;;11.62;100.00;101391.66;5092511;28;20047;-73
2022/05/30 08:24:37;;;;;;;3.13;0.73;;;;;;;11.36;100.00;101402.53;5095108;28;20027;-72
2022/05/30 08:27:03;;;;;;;1.45;0.73;;;;;;;11.40;100.00;101406.13;5094783;28;20034;-74
2022/05/30 08:29:29;;;;;;;2.30;0.90;;;;;;;11.19;100.00;101401.25;5094926;28;20475;-74
2022/05/30 08:31:55;;;;;;;2.10;0.60;;;;;;;11.12;100.00;101405.50;5092177;28;20414;-72
2022/05/30 08:34:20;;;;;;;5.45;0.77;;;;;;;11.17;100.00;101408.25;5093081;28;20024;-73
2022/05/30 08:36:45;;;;;;;1.23;0.70;;;;;;;11.04;100.00;101407.97;5098456;28;20111;-72
2022/05/30 08:41:55;;;;;;;3.38;0.73;;;;;;;11.12;100.00;101416.03;5081221;28;20510;-73
2022/05/30 08:44:20;;;;;;;3.97;0.90;;;;;;;11.05;100.00;101415.00;5094481;28;20032;-73
2022/05/30 08:47:00;;;;;;;4.50;1.10;;;;;;;11.03;100.00;101411.44;5101024;28;20027;-72
2022/05/30 08:49:35;;;;;;;2.70;1.10;;;;;;;11.16;100.00;101414.38;5094504;28;20048;-73
2022/05/30 08:52:20;;;;;;;5.20;1.05;;;;;;;11.36;100.00;101405.16;5103314;28;20031;-73
2022/05/30 08:54:54;;;;;;;3.33;1.00;;;;;;;11.35;100.00;101418.31;5093356;28;20081;-73
2022/05/30 08:57:48;;;;;;;7.03;1.30;;;;;;;11.56;100.00;101412.63;5097422;28;20463;-72
2022/05/30 09:00:29;;;;;;;2.00;0.87;;;;;;;11.37;100.00;101409.59;5101726;28;20020;-73
2022/05/30 09:03:01;;;;;;;3.70;0.80;;;;;;;11.64;100.00;101413.69;5096574;28;20288;-72
2022/05/30 09:05:50;;;;;;;5.35;1.00;;;;;;;11.65;100.00;101418.09;5104905;28;20088;-73
2022/05/30 09:08:26;;;;;;;4.80;1.08;;;;;;;11.44;100.00;101429.06;5087418;28;20035;-72
2022/05/30 09:10:56;;;;;;;1.05;0.85;;;;;;;11.50;100.00;101423.03;5099559;28;20483;-74
2022/05/30 09:13:33;;;;;;;2.88;1.10;;;;;;;11.60;100.00;101417.13;5100654;28;20030;-72
2022/05/30 09:16:16;;;;;;;5.60;1.17;;;;;;;11.76;100.00;101413.94;5080613;28;20026;-73
2022/05/30 09:18:47;;;;;;;2.78;1.10;;;;;;;11.82;100.00;101413.19;5093436;28;20433;-73
2022/05/30 09:21:15;;;;;;;5.60;1.20;;;;;;;11.69;100.00;101419.94;5094648;28;20027;-72
2022/05/30 09:23:41;;;;;;;5.35;1.13;;;;;;;11.78;100.00;101413.97;5103793;28;20028;-72
2022/05/30 09:26:28;;;;;;;6.40;1.25;;;;;;;11.58;100.00;101414.41;5093886;28;20490;-72
2022/05/30 09:29:00;;;;;;;6.10;1.10;;;;;;;11.62;100.00;101412.75;5104056;28;20463;-72
2022/05/30 09:31:50;;;;;;;4.35;0.90;;;;;;;11.94;100.00;101412.53;5096856;28;20030;-73
2022/05/30 09:34:35;;;;;;;2.95;1.10;;;;;;;12.03;100.00;101418.03;5092402;28;20077;-72
2022/05/30 09:37:01;;;;;;;2.35;1.05;;;;;;;12.12;100.00;101418.19;5093681;28;20024;-73
2022/05/30 09:39:27;;;;;;;3.13;0.68;;;;;;;12.26;100.00;101412.28;5093485;28;20023;-73
2022/05/30 09:42:01;;;;;;;2.90;1.17;;;;;;;12.27;100.00;101419.38;5093747;28;20132;-73
2022/05/30 09:44:39;;;;;;;7.65;1.00;;;;;;;12.22;100.00;101410.47;5091986;28;20020;-73
2022/05/30 09:47:13;;;;;;;3.70;1.00;;;;;;;12.48;100.00;101414.47;5101712;28;20024;-73
2022/05/30 09:49:45;;;;;;;3.67;0.88;;;;;;;12.59;100.00;101419.06;5113583;28;20122;-73
2022/05/30 09:52:24;;;;;;;5.97;1.80;;;;;;;12.72;100.00;101413.13;5113786;28;20020;-72
2022/05/30 09:54:50;;;;;;;5.57;1.20;;;;;;;12.88;100.00;101413.38;5093659;28;20035;-73
2022/05/30 09:57:21;;;;;;;2.53;0.90;;;;;;;12.77;100.00;101411.44;5091947;28;20024;-72
2022/05/30 09:59:49;;;;;;;5.75;1.10;;;;;;;13.16;100.00;101407.66;5093157;28;20146;-72
2022/05/30 10:02:32;;;;;;;2.65;0.90;;;;;;;13.26;100.00;101410.44;5106345;28;20023;-73
2022/05/30 10:05:03;;;;;;;5.70;1.05;;;;;;;13.26;100.00;101415.72;5092872;28;20169;-72
2022/05/30 10:07:29;;;;;;;7.28;1.10;;;;;;;13.29;100.00;101413.13;5090524;28;20383;-72
2022/05/30 10:10:01;;;;;;;5.43;1.40;;;;;;;13.37;100.00;101413.28;5093205;28;20020;-72
2022/05/30 10:12:29;;;;;;;3.33;1.10;;;;;;;13.19;100.00;101413.88;5093008;28;20527;-72
2022/05/30 10:14:55;;;;;;;4.15;1.10;;;;;;;13.25;100.00;101414.84;5102840;28;20024;-72
2022/05/30 10:17:33;;;;;;;5.80;1.10;;;;;;;12.99;100.00;101410.06;5100179;28;20043;-72
2022/05/30 10:20:07;;;;;;;4.13;0.98;;;;;;;12.92;100.00;101415.22;5103869;28;20019;-72
2022/05/30 10:29:12;;;;;;;5.22;1.10;;;;;;;12.88;100.00;101423.94;5112499;28;20035;-72
2022/05/30 10:31:52;;;;;;;3.28;0.82;;;;;;;12.82;100.00;101424.75;5104652;28;20492;-73
2022/05/30 10:34:43;;;;;;;2.75;1.20;;;;;;;12.74;100.00;101432.53;5081132;28;20463;-71
2022/05/30 10:37:34;;;;;;;4.70;1.40;;;;;;;12.43;100.00;101431.09;5092906;28;20028;-71
2022/05/30 10:40:29;;;;;;;4.05;0.85;;;;;;;12.68;100.00;101442.97;5090016;28;20070;-73
2022/05/30 10:43:35;;;;;;;2.95;0.88;;;;;;;12.75;100.00;101429.03;5093122;28;20028;-73
2022/05/30 10:46:05;;;;;;;3.40;0.90;;;;;;;12.87;98.49;101432.72;5092451;28;20040;-73
2022/05/30 10:48:37;;;;;;;2.35;0.80;;;;;;;12.97;97.36;101429.38;5092504;28;21507;-73
2022/05/30 10:51:12;;;;;;;1.33;1.05;;;;;;;12.93;100.00;101439.00;5092732;28;20027;-73
2022/05/30 10:54:16;;;;;;;2.72;0.80;;;;;;;12.82;100.00;101443.22;5093101;28;20042;-71
2022/05/30 10:56:54;;;;;;;3.75;1.10;;;;;;;12.87;100.00;101443.28;5090048;28;20036;-71
2022/05/30 10:59:33;;;;;;;7.80;0.90;;;;;;;13.04;100.00;101443.59;5108953;28;20016;-72
2022/05/30 11:02:36;;;;;;;6.53;1.08;;;;;;;13.11;100.00;101443.69;5096669;28;20031;-72
2022/05/30 11:05:15;;;;;;;2.15;0.80;;;;;;;13.29;97.14;101439.56;5086951;28;20074;-72
2022/05/30 11:08:17;;;;;;;1.50;0.77;;;;;;;13.44;97.27;101442.47;5097559;28;20020;-73
2022/05/30 11:10:49;;;;;;;3.72;0.77;;;;;;;13.55;97.50;101439.97;5115619;28;20031;-71
2022/05/30 11:13:37;;;;;;;3.33;0.77;;;;;;;13.64;91.56;101434.78;5116922;28;20024;-72
2022/05/30 11:16:18;;;;;;;5.60;0.90;;;;;;;13.91;97.75;101437.78;5103155;28;20390;-72
2022/05/30 11:18:59;;;;;;;5.30;0.82;;;;;;;13.95;95.05;101435.19;5094110;28;20035;-73
2022/05/30 11:21:37;;;;;;;3.15;1.02;;;;;;;14.28;91.72;101438.22;5108228;28;20027;-72
2022/05/30 11:24:04;;;;;;;7.50;0.80;;;;;;;14.14;89.62;101432.78;5105673;28;20474;-72
2022/05/30 11:26:50;;;;;;;3.58;0.80;;;;;;;14.36;94.99;101439.16;5116329;28;20033;-72
2022/05/30 11:29:46;;;;;;;4.13;0.73;;;;;;;14.88;82.71;101429.97;5100777;27;20028;-72
2022/05/30 11:32:34;;;;;;;2.03;0.70;;;;;;;14.93;80.49;101431.78;5083529;28;20035;-73
2022/05/30 11:35:21;;;;;;;3.15;0.70;;;;;;;14.90;79.65;101433.53;5095955;27;20549;-73
2022/05/30 11:38:15;;;;;;;5.70;0.73;;;;;;;14.84;76.70;101435.25;5094650;28;20059;-73
2022/05/30 11:40:59;;;;;;;5.35;0.90;;;;;;;15.05;83.10;101432.78;5085758;28;20017;-73
2022/05/30 11:43:24;;;;;;;;;;;;;;;15.08;74.65;101430.13;5102085;28;20031;-73
2022/05/30 11:45:58;;;;;;;4.10;0.90;;;;;;;14.94;78.41;101432.69;5116327;28;19919;-73
2022/05/30 11:48:37;;;;;;;;;;;;;;;15.30;87.18;101428.50;5109775;28;20066;-73